createdAt,value
2019-06-26T00:01:30.672Z,22.19
2019-06-26T00:06:35.983Z,22.13
2019-06-26T00:11:41.691Z,22.07
2019-06-26T00:16:47.312Z,22.04
2019-06-26T00:21:52.541Z,22.01
2019-06-26T00:26:57.798Z,22.03
2019-06-26T00:32:02.946Z,21.92
2019-06-26T00:37:08.484Z,21.95
2019-06-26T00:42:13.670Z,22.01
2019-06-26T00:47:18.889Z,21.89
2019-06-26T00:52:24.254Z,21.92
2019-06-26T00:57:29.540Z,21.98
2019-06-26T01:02:34.754Z,21.82
2019-06-26T01:07:39.986Z,21.82
2019-06-26T01:12:45.641Z,21.78
2019-06-26T01:17:51.620Z,21.86
2019-06-26T01:22:56.796Z,21.79
2019-06-26T01:28:02.113Z,21.74
2019-06-26T01:33:07.323Z,21.80
2019-06-26T01:38:12.564Z,21.81
2019-06-26T01:43:17.799Z,21.77
2019-06-26T01:48:23.223Z,21.99
2019-06-26T01:53:28.482Z,22.26
2019-06-26T01:58:33.772Z,22.35
2019-06-26T02:03:38.884Z,22.36
2019-06-26T02:08:44.133Z,22.42
2019-06-26T02:13:49.571Z,22.46
2019-06-26T02:18:58.137Z,22.49
2019-06-26T02:24:03.349Z,22.49
2019-06-26T02:29:08.590Z,22.43
2019-06-26T02:34:13.843Z,22.30
2019-06-26T02:39:19.138Z,22.44
2019-06-26T02:44:25.828Z,22.51
2019-06-26T02:49:31.147Z,22.45
2019-06-26T02:54:36.352Z,22.51
2019-06-26T02:59:42.669Z,22.67
2019-06-26T03:04:47.865Z,22.84
2019-06-26T03:09:53.120Z,22.90
2019-06-26T03:15:08.895Z,22.86
2019-06-26T03:20:07.337Z,22.74
2019-06-26T03:25:13.857Z,22.79
2019-06-26T03:30:19.580Z,22.88
2019-06-26T03:35:24.766Z,22.96
2019-06-26T03:40:30.082Z,23.00
2019-06-26T03:45:35.304Z,23.09
2019-06-26T03:50:40.618Z,23.16
2019-06-26T03:55:45.691Z,23.27
2019-06-26T04:00:50.903Z,23.24
2019-06-26T04:05:56.313Z,23.35
2019-06-26T04:11:02.479Z,23.43
2019-06-26T04:16:08.114Z,23.51
2019-06-26T04:21:13.466Z,23.64
2019-06-26T04:26:18.642Z,23.70
2019-06-26T04:31:23.979Z,23.85
2019-06-26T04:36:29.272Z,23.93
2019-06-26T04:41:34.776Z,24.04
2019-06-26T04:46:39.960Z,24.14
2019-06-26T04:51:45.188Z,24.18
2019-06-26T04:56:50.273Z,24.12
2019-06-26T05:01:55.429Z,24.24
2019-06-26T05:07:00.728Z,24.48
2019-06-26T05:12:07.048Z,24.62
2019-06-26T05:17:12.836Z,24.90
2019-06-26T05:22:18.468Z,25.07
2019-06-26T05:27:23.714Z,25.22
2019-06-26T05:32:29.354Z,25.43
2019-06-26T05:37:34.670Z,25.50
2019-06-26T05:42:39.885Z,25.75
2019-06-26T05:47:45.176Z,25.75
2019-06-26T05:52:50.581Z,26.00
2019-06-26T05:57:55.751Z,26.04
2019-06-26T06:03:01.063Z,26.23
2019-06-26T06:08:06.249Z,26.19
2019-06-26T06:13:11.447Z,26.33
2019-06-26T06:18:17.184Z,26.54
2019-06-26T06:23:22.303Z,26.63
2019-06-26T06:28:27.939Z,26.91
2019-06-26T06:33:33.157Z,26.99
2019-06-26T06:38:38.315Z,27.25
2019-06-26T06:43:43.664Z,27.44
2019-06-26T06:48:48.776Z,27.66
2019-06-26T06:53:53.904Z,28.01
2019-06-26T06:58:59.075Z,28.17
2019-06-26T07:04:04.517Z,28.25
2019-06-26T07:09:09.756Z,28.48
2019-06-26T07:14:14.922Z,28.58
2019-06-26T07:19:20.526Z,28.84
2019-06-26T07:24:25.654Z,29.08
2019-06-26T07:29:31.001Z,29.30
2019-06-26T07:34:36.212Z,29.52
2019-06-26T07:39:41.675Z,29.53
2019-06-26T07:44:46.807Z,29.87
2019-06-26T07:49:51.984Z,29.96
2019-06-26T07:54:57.473Z,30.17
2019-06-26T08:00:02.753Z,30.33
2019-06-26T08:05:11.440Z,30.50
2019-06-26T08:10:17.104Z,30.47
2019-06-26T08:15:22.423Z,30.74
2019-06-26T08:20:27.735Z,30.88
2019-06-26T08:25:32.920Z,30.74
2019-06-26T08:30:38.206Z,31.03
2019-06-26T08:35:43.417Z,31.06
2019-06-26T08:40:48.475Z,30.97
2019-06-26T08:45:53.652Z,31.30
2019-06-26T08:50:58.821Z,31.52
2019-06-26T08:56:04.633Z,31.39
2019-06-26T09:01:09.844Z,31.53
2019-06-26T09:06:15.002Z,31.75
2019-06-26T09:11:20.332Z,31.86
2019-06-26T09:16:25.697Z,31.91
2019-06-26T09:21:31.471Z,31.89
2019-06-26T09:26:36.633Z,32.19
2019-06-26T09:31:41.825Z,32.33
2019-06-26T09:36:46.994Z,32.21
2019-06-26T09:41:52.168Z,32.59
2019-06-26T09:46:57.637Z,32.37
2019-06-26T09:52:03.026Z,32.51
2019-06-26T09:57:08.640Z,32.36
2019-06-26T10:02:13.850Z,32.58
2019-06-26T10:07:19.011Z,32.92
2019-06-26T10:12:24.382Z,33.09
2019-06-26T10:17:29.574Z,33.25
2019-06-26T10:22:34.877Z,33.20
2019-06-26T10:27:40.354Z,33.45
2019-06-26T10:32:45.650Z,33.36
2019-06-26T10:37:51.028Z,33.12
2019-06-26T10:42:56.611Z,33.23
2019-06-26T10:48:02.067Z,33.22
2019-06-26T10:53:07.865Z,33.48
2019-06-26T10:58:13.513Z,33.42
2019-06-26T11:03:18.687Z,33.43
2019-06-26T11:08:24.012Z,33.88
2019-06-26T11:13:29.601Z,34.01
2019-06-26T11:18:34.772Z,33.83
2019-06-26T11:23:39.886Z,33.65
2019-06-26T11:28:45.657Z,34.22
2019-06-26T11:33:51.218Z,34.44
2019-06-26T11:38:56.599Z,34.20
2019-06-26T11:44:01.810Z,34.05
2019-06-26T11:49:07.109Z,34.23
2019-06-26T11:54:12.350Z,34.85
2019-06-26T11:59:17.905Z,35.32
2019-06-26T12:04:23.672Z,35.41
2019-06-26T12:09:30.264Z,35.61
2019-06-26T12:14:35.509Z,35.58
2019-06-26T12:19:41.393Z,35.72
2019-06-26T12:24:49.616Z,35.43
2019-06-26T12:29:55.422Z,34.11
2019-06-26T12:35:01.061Z,33.66
2019-06-26T12:40:08.054Z,33.26
2019-06-26T12:45:14.811Z,32.45
2019-06-26T12:50:34.461Z,32.55
2019-06-26T12:55:32.987Z,32.54
2019-06-26T13:00:38.484Z,32.34
2019-06-26T13:05:46.851Z,31.33
2019-06-26T13:10:52.246Z,31.45
2019-06-26T13:15:57.491Z,30.91
2019-06-26T13:21:05.162Z,32.27
2019-06-26T13:26:10.050Z,32.08
2019-06-26T13:31:16.484Z,32.86
2019-06-26T13:36:21.696Z,33.35
2019-06-26T13:41:26.850Z,33.39
2019-06-26T13:46:32.123Z,34.80
2019-06-26T13:51:37.392Z,35.11
2019-06-26T13:56:43.389Z,35.06
2019-06-26T14:01:49.043Z,35.81
2019-06-26T14:06:54.574Z,35.89
2019-06-26T14:12:00.078Z,35.47
2019-06-26T14:17:05.635Z,35.33
2019-06-26T14:22:13.086Z,35.17
2019-06-26T14:27:18.287Z,35.71
2019-06-26T14:32:23.652Z,35.16
2019-06-26T14:37:28.991Z,35.14
2019-06-26T14:42:34.372Z,35.73
2019-06-26T14:47:39.838Z,35.36
2019-06-26T14:52:46.070Z,34.51
2019-06-26T14:57:52.488Z,33.16
2019-06-26T15:02:57.861Z,33.90
2019-06-26T15:08:03.724Z,34.65
2019-06-26T15:13:09.492Z,34.45
2019-06-26T15:18:15.262Z,33.73
2019-06-26T15:23:20.612Z,34.70
2019-06-26T15:28:25.852Z,35.11
2019-06-26T15:33:31.343Z,35.63
2019-06-26T15:38:36.816Z,36.19
2019-06-26T15:43:42.287Z,35.86
2019-06-26T15:48:50.266Z,35.89
2019-06-26T15:53:54.466Z,35.59
2019-06-26T15:58:59.771Z,35.28
2019-06-26T16:04:05.131Z,35.19
2019-06-26T16:09:10.488Z,35.39
2019-06-26T16:14:15.846Z,35.45
2019-06-26T16:19:22.951Z,35.07
2019-06-26T16:24:30.220Z,34.97
2019-06-26T16:29:35.592Z,35.15
2019-06-26T16:34:40.877Z,34.97
2019-06-26T16:39:46.173Z,34.94
2019-06-26T16:44:51.430Z,34.95
2019-06-26T16:49:56.737Z,35.05
2019-06-26T16:55:03.035Z,35.13
2019-06-26T17:00:11.052Z,34.86
2019-06-26T17:05:17.404Z,34.33
2019-06-26T17:10:23.298Z,34.34
2019-06-26T17:15:28.619Z,34.31
2019-06-26T17:20:34.372Z,33.62
2019-06-26T17:25:39.605Z,33.51
2019-06-26T17:30:44.878Z,33.48
2019-06-26T17:35:50.697Z,33.10
2019-06-26T17:40:59.383Z,32.65
2019-06-26T17:46:03.448Z,32.43
2019-06-26T17:51:09.657Z,32.32
2019-06-26T17:56:15.010Z,32.19
2019-06-26T18:01:20.258Z,31.91
2019-06-26T18:06:26.642Z,31.83
2019-06-26T18:11:32.722Z,31.64
2019-06-26T18:16:38.042Z,31.51
2019-06-26T18:21:43.831Z,31.24
2019-06-26T18:26:49.119Z,31.14
2019-06-26T18:31:54.555Z,30.89
2019-06-26T18:37:00.026Z,30.69
2019-06-26T18:42:05.333Z,30.55
2019-06-26T18:47:10.727Z,30.34
2019-06-26T18:52:15.804Z,30.13
2019-06-26T18:57:21.038Z,29.86
2019-06-26T19:02:26.432Z,29.73
2019-06-26T19:07:31.726Z,29.55
2019-06-26T19:12:37.031Z,29.30
2019-06-26T19:17:42.898Z,29.09
2019-06-26T19:22:48.341Z,28.79
2019-06-26T19:27:53.813Z,28.37
2019-06-26T19:32:59.128Z,28.17
2019-06-26T19:38:04.382Z,27.91
2019-06-26T19:43:11.117Z,27.79
2019-06-26T19:48:16.645Z,27.66
2019-06-26T19:53:21.974Z,27.48
2019-06-26T19:58:27.227Z,27.32
2019-06-26T20:03:33.597Z,27.14
2019-06-26T20:08:53.057Z,27.00
2019-06-26T20:13:46.338Z,26.78
2019-06-26T20:18:51.782Z,26.56
2019-06-26T20:23:57.374Z,26.51
2019-06-26T20:29:02.671Z,26.42
2019-06-26T20:34:08.105Z,26.27
2019-06-26T20:39:13.388Z,26.17
2019-06-26T20:44:18.989Z,26.04
2019-06-26T20:49:24.456Z,25.82
2019-06-26T20:54:29.725Z,25.79
2019-06-26T20:59:35.588Z,25.62
2019-06-26T21:04:41.271Z,25.48
2019-06-26T21:09:46.638Z,25.32
2019-06-26T21:14:51.869Z,25.19
2019-06-26T21:19:57.108Z,25.14
2019-06-26T21:25:16.828Z,24.88
2019-06-26T21:30:11.101Z,24.81
2019-06-26T21:35:16.578Z,24.71
2019-06-26T21:40:21.963Z,24.54
2019-06-26T21:45:28.119Z,24.49
2019-06-26T21:50:33.460Z,24.46
2019-06-26T21:55:39.031Z,24.43
2019-06-26T22:01:01.981Z,24.23
2019-06-26T22:06:24.981Z,24.00
2019-06-26T22:11:47.228Z,23.85
2019-06-26T22:16:52.661Z,23.82
2019-06-26T22:21:58.027Z,23.60
2019-06-26T22:27:03.282Z,23.58
2019-06-26T22:32:08.560Z,23.51
2019-06-26T22:37:13.892Z,23.43
2019-06-26T22:42:19.882Z,23.28
2019-06-26T22:47:25.485Z,23.31
2019-06-26T22:52:30.678Z,23.05
2019-06-26T22:57:37.504Z,22.80
2019-06-26T23:02:42.966Z,22.64
2019-06-26T23:07:48.549Z,22.56
2019-06-26T23:12:54.296Z,22.32
2019-06-26T23:18:00.005Z,22.38
2019-06-26T23:23:05.734Z,22.19
2019-06-26T23:28:11.382Z,21.99
2019-06-26T23:33:18.081Z,21.96
2019-06-26T23:38:23.648Z,22.02
2019-06-26T23:43:30.437Z,21.89
2019-06-26T23:48:36.112Z,21.99
2019-06-26T23:53:42.075Z,22.00
2019-06-26T23:58:47.436Z,21.95
